createdAt,value
2023-03-06T00:01:27.438Z,-4.30
2023-03-06T00:04:16.366Z,-4.33
2023-03-06T00:07:03.001Z,-4.39
2023-03-06T00:09:49.794Z,-4.45
2023-03-06T00:12:38.957Z,-4.44
2023-03-06T00:15:28.481Z,-4.59
2023-03-06T00:18:24.097Z,-4.48
2023-03-06T00:21:16.132Z,-4.42
2023-03-06T00:24:05.060Z,-4.46
2023-03-06T00:26:51.046Z,-4.50
2023-03-06T00:29:38.037Z,-4.66
2023-03-06T00:32:26.179Z,-4.54
2023-03-06T00:35:13.630Z,-4.58
2023-03-06T00:38:04.653Z,-4.59
2023-03-06T00:40:55.513Z,-4.84
2023-03-06T00:43:42.114Z,-4.49
2023-03-06T00:46:28.701Z,-4.68
2023-03-06T00:49:15.336Z,-4.68
2023-03-06T00:52:03.748Z,-4.79
2023-03-06T00:54:49.785Z,-4.74
2023-03-06T00:57:36.372Z,-4.73
2023-03-06T01:00:22.539Z,-4.86
2023-03-06T01:03:09.985Z,-4.73
2023-03-06T01:05:57.943Z,-4.68
2023-03-06T01:08:44.545Z,-4.68
2023-03-06T01:11:31.526Z,-4.70
2023-03-06T01:14:19.530Z,-4.77
2023-03-06T01:17:06.020Z,-4.68
2023-03-06T01:19:52.633Z,-4.65
2023-03-06T01:22:39.053Z,-4.80
2023-03-06T01:25:26.185Z,-4.82
2023-03-06T01:28:12.595Z,-4.65
2023-03-06T01:31:04.520Z,-4.78
2023-03-06T01:33:50.425Z,-4.74
2023-03-06T01:36:37.571Z,-4.89
2023-03-06T01:39:25.121Z,-4.61
2023-03-06T01:42:11.844Z,-4.64
2023-03-06T01:45:01.392Z,-4.62
2023-03-06T01:47:48.196Z,-4.89
2023-03-06T01:50:34.631Z,-4.62
2023-03-06T01:53:21.566Z,-4.63
2023-03-06T01:56:08.082Z,-5.03
2023-03-06T01:58:55.107Z,-4.69
2023-03-06T02:01:42.593Z,-4.65
2023-03-06T02:04:32.778Z,-4.65
2023-03-06T02:07:20.359Z,-4.66
2023-03-06T02:10:07.805Z,-4.68
2023-03-06T02:12:54.656Z,-4.60
2023-03-06T02:15:41.818Z,-4.64
2023-03-06T02:18:29.499Z,-4.49
2023-03-06T02:21:22.232Z,-4.54
2023-03-06T02:24:30.201Z,-4.51
2023-03-06T02:27:20.037Z,-4.68
2023-03-06T02:30:09.865Z,-4.47
2023-03-06T02:32:57.361Z,-4.74
2023-03-06T02:35:49.376Z,-4.32
2023-03-06T02:38:48.033Z,-4.27
2023-03-06T02:41:34.250Z,-4.16
2023-03-06T02:44:22.510Z,-4.18
2023-03-06T02:47:14.431Z,-4.21
2023-03-06T02:50:04.904Z,-4.11
2023-03-06T02:52:53.859Z,-4.13
2023-03-06T02:55:43.994Z,-4.01
2023-03-06T02:58:30.192Z,-3.94
2023-03-06T03:01:18.076Z,-4.00
2023-03-06T03:04:04.698Z,-4.19
2023-03-06T03:06:54.057Z,-3.74
2023-03-06T03:09:40.223Z,-3.79
2023-03-06T03:12:28.807Z,-3.62
2023-03-06T03:15:15.257Z,-3.51
2023-03-06T03:18:05.010Z,-3.35
2023-03-06T03:20:55.179Z,-3.58
2023-03-06T03:23:44.658Z,-3.21
2023-03-06T03:26:31.279Z,-3.17
2023-03-06T03:29:22.789Z,-3.26
2023-03-06T03:32:09.725Z,-3.19
2023-03-06T03:34:57.261Z,-3.20
2023-03-06T03:37:45.117Z,-3.14
2023-03-06T03:40:32.253Z,-3.06
2023-03-06T03:43:19.685Z,-2.94
2023-03-06T03:46:07.171Z,-2.98
2023-03-06T03:48:53.795Z,-3.00
2023-03-06T03:51:40.858Z,-2.84
2023-03-06T03:54:27.086Z,-2.97
2023-03-06T03:57:14.383Z,-2.79
2023-03-06T04:00:12.088Z,-2.78
2023-03-06T04:03:10.046Z,-2.82
2023-03-06T04:06:03.897Z,-2.75
2023-03-06T04:08:50.530Z,-2.66
2023-03-06T04:11:37.650Z,-2.65
2023-03-06T04:14:27.214Z,-2.59
2023-03-06T04:17:33.675Z,-2.88
2023-03-06T04:20:23.882Z,-2.86
2023-03-06T04:23:10.428Z,-2.61
2023-03-06T04:25:57.921Z,-2.61
2023-03-06T04:28:44.822Z,-2.43
2023-03-06T04:31:31.919Z,-2.78
2023-03-06T04:34:18.308Z,-2.39
2023-03-06T04:37:06.408Z,-2.29
2023-03-06T04:39:55.044Z,-2.30
2023-03-06T04:42:41.986Z,-2.33
2023-03-06T04:45:29.887Z,-2.29
2023-03-06T04:48:19.982Z,-2.24
2023-03-06T04:51:06.404Z,-2.29
2023-03-06T04:53:56.324Z,-2.29
2023-03-06T04:56:42.460Z,-2.22
2023-03-06T04:59:31.871Z,-2.29
2023-03-06T05:02:18.683Z,-2.37
2023-03-06T05:05:08.822Z,-2.55
2023-03-06T05:07:55.753Z,-2.11
2023-03-06T05:10:43.513Z,-2.17
2023-03-06T05:13:29.914Z,-1.95
2023-03-06T05:16:16.826Z,-2.01
2023-03-06T05:19:04.106Z,-2.02
2023-03-06T05:21:53.518Z,-2.07
2023-03-06T05:24:42.386Z,-1.94
2023-03-06T05:27:29.188Z,-1.91
2023-03-06T05:30:15.752Z,-2.16
2023-03-06T05:33:02.425Z,-1.79
2023-03-06T05:35:48.976Z,-2.06
2023-03-06T05:38:39.060Z,-2.01
2023-03-06T05:41:25.423Z,-1.72
2023-03-06T05:44:12.297Z,-1.73
2023-03-06T05:47:00.302Z,-1.83
2023-03-06T05:49:47.968Z,-1.64
2023-03-06T05:52:36.993Z,-1.64
2023-03-06T05:55:26.227Z,-1.70
2023-03-06T05:58:12.718Z,-1.56
2023-03-06T06:01:00.263Z,-1.48
2023-03-06T06:03:48.447Z,-1.46
2023-03-06T06:06:35.679Z,-1.37
2023-03-06T06:09:22.639Z,-1.62
2023-03-06T06:12:09.441Z,-1.34
2023-03-06T06:14:55.948Z,-1.43
2023-03-06T06:17:42.653Z,-1.27
2023-03-06T06:20:29.231Z,-1.50
2023-03-06T06:23:16.290Z,-1.49
2023-03-06T06:26:07.879Z,-1.15
2023-03-06T06:28:59.746Z,-1.36
2023-03-06T06:31:46.631Z,-1.30
2023-03-06T06:34:39.631Z,-1.11
2023-03-06T06:37:26.202Z,-0.96
2023-03-06T06:40:13.070Z,-1.05
2023-03-06T06:43:02.288Z,-1.19
2023-03-06T06:45:49.709Z,-1.15
2023-03-06T06:48:37.842Z,-0.89
2023-03-06T06:51:24.695Z,-0.77
2023-03-06T06:54:23.633Z,-0.78
2023-03-06T06:57:11.868Z,-0.68
2023-03-06T06:59:58.687Z,-0.73
2023-03-06T07:02:49.267Z,-0.63
2023-03-06T07:05:35.471Z,-0.56
2023-03-06T07:08:22.704Z,-0.76
2023-03-06T07:11:12.952Z,-0.45
2023-03-06T07:13:59.694Z,-0.50
2023-03-06T07:16:46.259Z,-0.40
2023-03-06T07:19:33.050Z,-0.50
2023-03-06T07:22:22.730Z,-0.60
2023-03-06T07:25:09.655Z,-0.34
2023-03-06T07:27:56.325Z,-0.40
2023-03-06T07:30:43.899Z,-0.23
2023-03-06T07:33:32.854Z,-0.22
2023-03-06T07:36:20.319Z,-0.24
2023-03-06T07:39:07.775Z,-0.16
2023-03-06T07:41:54.425Z,-0.50
2023-03-06T07:44:43.779Z,-0.18
2023-03-06T07:47:30.447Z,-0.21
2023-03-06T07:50:18.817Z,-0.25
2023-03-06T07:53:10.730Z,-0.12
2023-03-06T07:55:56.885Z,-0.07
2023-03-06T07:58:48.384Z,-0.02
2023-03-06T08:01:36.516Z,0.01
2023-03-06T08:04:23.481Z,-0.19
2023-03-06T08:07:10.062Z,0.07
2023-03-06T08:09:56.721Z,0.07
2023-03-06T08:12:46.243Z,-0.03
2023-03-06T08:15:33.586Z,0.22
2023-03-06T08:18:24.709Z,0.25
2023-03-06T08:21:16.320Z,0.10
2023-03-06T08:24:02.517Z,0.28
2023-03-06T08:26:49.126Z,-0.08
2023-03-06T08:29:35.839Z,0.22
2023-03-06T08:32:23.095Z,0.19
2023-03-06T08:35:09.714Z,0.16
2023-03-06T08:37:56.990Z,-0.02
2023-03-06T08:40:43.663Z,0.17
2023-03-06T08:43:30.199Z,0.25
2023-03-06T08:46:21.443Z,0.10
2023-03-06T08:49:08.007Z,0.29
2023-03-06T08:51:54.513Z,0.31
2023-03-06T08:54:41.011Z,0.34
2023-03-06T08:57:28.536Z,0.32
2023-03-06T09:00:15.834Z,0.46
2023-03-06T09:03:02.251Z,0.47
2023-03-06T09:05:48.564Z,0.54
2023-03-06T09:08:37.658Z,0.54
2023-03-06T09:11:28.726Z,0.54
2023-03-06T09:14:15.061Z,0.62
2023-03-06T09:17:01.353Z,0.61
2023-03-06T09:19:53.908Z,0.49
2023-03-06T09:22:42.552Z,0.62
2023-03-06T09:25:31.842Z,0.66
2023-03-06T09:28:18.485Z,0.68
2023-03-06T09:31:16.235Z,0.58
2023-03-06T09:34:03.017Z,0.61
2023-03-06T09:36:56.831Z,0.55
2023-03-06T09:39:43.807Z,0.70
2023-03-06T09:42:31.678Z,0.66
2023-03-06T09:45:20.663Z,0.46
2023-03-06T09:48:16.236Z,0.81
2023-03-06T09:51:10.608Z,0.80
2023-03-06T09:54:13.532Z,0.94
2023-03-06T09:57:03.676Z,1.04
2023-03-06T09:59:56.055Z,1.02
2023-03-06T10:02:50.859Z,0.92
2023-03-06T10:05:43.507Z,0.98
2023-03-06T10:08:39.366Z,0.97
2023-03-06T10:11:34.573Z,0.96
2023-03-06T10:14:46.630Z,1.02
2023-03-06T10:17:37.769Z,1.09
2023-03-06T10:20:38.566Z,1.14
2023-03-06T10:23:52.566Z,1.21
2023-03-06T10:26:45.302Z,1.27
2023-03-06T10:29:41.055Z,1.22
2023-03-06T10:32:49.443Z,1.34
2023-03-06T10:35:48.905Z,1.26
2023-03-06T10:38:41.241Z,1.48
2023-03-06T10:41:32.078Z,1.44
2023-03-06T10:44:21.109Z,1.51
2023-03-06T10:47:27.846Z,1.43
2023-03-06T10:50:34.754Z,1.39
2023-03-06T10:53:25.410Z,1.40
2023-03-06T10:56:12.594Z,1.46
2023-03-06T10:59:11.638Z,1.52
2023-03-06T11:02:21.437Z,1.51
2023-03-06T11:05:21.105Z,1.69
2023-03-06T11:08:21.907Z,1.67
2023-03-06T11:11:12.513Z,1.45
2023-03-06T11:14:02.261Z,1.82
2023-03-06T11:16:53.367Z,1.89
2023-03-06T11:19:43.406Z,1.76
2023-03-06T11:22:30.088Z,1.84
2023-03-06T11:25:21.618Z,1.66
2023-03-06T11:28:17.592Z,1.96
2023-03-06T11:31:06.676Z,2.10
2023-03-06T11:33:56.575Z,2.12
2023-03-06T11:36:48.894Z,2.11
2023-03-06T11:39:49.550Z,2.14
2023-03-06T11:42:39.740Z,2.04
2023-03-06T11:45:34.827Z,2.21
2023-03-06T11:48:23.938Z,2.16
2023-03-06T11:51:26.010Z,2.00
2023-03-06T11:54:13.441Z,2.06
2023-03-06T11:57:18.764Z,1.75
2023-03-06T12:00:30.050Z,1.95
2023-03-06T12:03:22.903Z,1.95
2023-03-06T12:06:30.388Z,1.94
2023-03-06T12:09:24.522Z,1.89
2023-03-06T12:12:23.167Z,1.68
2023-03-06T12:15:40.756Z,1.88
2023-03-06T12:18:58.109Z,1.95
2023-03-06T12:22:12.660Z,1.91
2023-03-06T12:25:11.715Z,1.84
2023-03-06T12:28:00.969Z,2.13
2023-03-06T12:31:06.328Z,2.08
2023-03-06T12:34:12.555Z,2.00
2023-03-06T12:37:27.067Z,1.63
2023-03-06T12:40:38.943Z,1.98
2023-03-06T12:43:47.604Z,1.83
2023-03-06T12:46:42.003Z,1.72
2023-03-06T12:49:33.019Z,1.73
2023-03-06T12:52:30.305Z,1.76
2023-03-06T12:55:22.713Z,1.79
2023-03-06T12:58:30.673Z,1.63
2023-03-06T13:01:32.919Z,1.74
2023-03-06T13:04:35.757Z,1.80
2023-03-06T13:07:32.378Z,1.92
2023-03-06T13:10:27.137Z,1.53
2023-03-06T13:13:46.397Z,1.99
2023-03-06T13:16:34.972Z,1.83
2023-03-06T13:19:26.749Z,1.96
2023-03-06T13:22:30.226Z,2.06
2023-03-06T13:25:17.395Z,2.05
2023-03-06T13:28:04.828Z,2.04
2023-03-06T13:30:56.119Z,1.95
2023-03-06T13:33:48.002Z,1.89
2023-03-06T13:36:39.556Z,1.95
2023-03-06T13:39:26.206Z,2.13
2023-03-06T13:42:26.526Z,2.09
2023-03-06T13:45:24.551Z,2.17
2023-03-06T13:48:43.101Z,2.24
2023-03-06T13:51:35.008Z,2.15
2023-03-06T13:54:55.672Z,2.01
2023-03-06T13:57:57.075Z,2.27
2023-03-06T14:00:46.604Z,2.28
2023-03-06T14:04:04.486Z,2.21
2023-03-06T14:06:52.776Z,2.28
2023-03-06T14:09:44.730Z,2.22
2023-03-06T14:12:34.642Z,2.22
2023-03-06T14:15:23.746Z,2.24
2023-03-06T14:18:17.092Z,2.28
2023-03-06T14:21:05.720Z,2.27
2023-03-06T14:24:01.440Z,2.17
2023-03-06T14:26:50.775Z,2.13
2023-03-06T14:29:37.516Z,2.19
2023-03-06T14:32:24.522Z,2.12
2023-03-06T14:35:23.325Z,2.16
2023-03-06T14:38:12.980Z,2.13
2023-03-06T14:41:03.605Z,1.95
2023-03-06T14:43:50.393Z,2.07
2023-03-06T14:46:40.289Z,2.08
2023-03-06T14:49:27.214Z,1.70
2023-03-06T14:52:21.037Z,1.96
2023-03-06T14:55:11.879Z,2.02
2023-03-06T14:58:02.428Z,1.91
2023-03-06T15:00:51.630Z,1.95
2023-03-06T15:03:48.699Z,1.82
2023-03-06T15:06:39.728Z,1.94
2023-03-06T15:09:32.040Z,1.96
2023-03-06T15:12:22.805Z,1.90
2023-03-06T15:15:12.851Z,1.88
2023-03-06T15:18:00.405Z,1.84
2023-03-06T15:20:56.078Z,1.67
2023-03-06T15:23:49.446Z,1.70
2023-03-06T15:26:37.142Z,1.48
2023-03-06T15:29:24.136Z,1.55
2023-03-06T15:32:31.205Z,1.48
2023-03-06T15:35:37.342Z,1.19
2023-03-06T15:38:45.833Z,1.47
2023-03-06T15:41:40.026Z,1.42
2023-03-06T15:44:31.970Z,1.29
2023-03-06T15:47:18.334Z,1.11
2023-03-06T15:50:17.272Z,1.02
2023-03-06T15:53:03.935Z,1.25
2023-03-06T15:55:51.769Z,0.92
2023-03-06T15:58:39.273Z,0.95
2023-03-06T16:01:26.690Z,1.16
2023-03-06T16:04:14.043Z,1.08
2023-03-06T16:07:00.462Z,1.04
2023-03-06T16:09:47.493Z,1.03
2023-03-06T16:12:34.383Z,0.91
2023-03-06T16:15:23.198Z,0.89
2023-03-06T16:18:11.295Z,0.90
2023-03-06T16:20:57.867Z,0.83
2023-03-06T16:23:44.641Z,0.62
2023-03-06T16:26:35.286Z,0.89
2023-03-06T16:29:25.253Z,0.86
2023-03-06T16:32:11.900Z,0.76
2023-03-06T16:34:58.700Z,0.70
2023-03-06T16:37:46.046Z,0.75
2023-03-06T16:40:37.793Z,0.60
2023-03-06T16:43:24.254Z,0.61
2023-03-06T16:46:22.840Z,0.42
2023-03-06T16:49:19.032Z,0.39
2023-03-06T16:52:09.017Z,0.41
2023-03-06T16:54:55.588Z,0.39
2023-03-06T16:57:42.068Z,0.40
2023-03-06T17:00:32.055Z,0.39
2023-03-06T17:03:18.802Z,0.29
2023-03-06T17:06:20.304Z,0.27
2023-03-06T17:09:07.594Z,0.24
2023-03-06T17:11:54.151Z,0.19
2023-03-06T17:14:40.777Z,0.08
2023-03-06T17:17:32.411Z,-0.11
2023-03-06T17:20:19.980Z,0.03
2023-03-06T17:23:06.418Z,-0.01
2023-03-06T17:26:02.755Z,-0.07
2023-03-06T17:28:49.522Z,-0.10
2023-03-06T17:31:38.776Z,-0.17
2023-03-06T17:34:25.320Z,-0.20
2023-03-06T17:37:11.817Z,-0.23
2023-03-06T17:39:58.723Z,-0.57
2023-03-06T17:42:45.691Z,-0.38
2023-03-06T17:45:34.315Z,-0.38
2023-03-06T17:48:23.741Z,-0.50
2023-03-06T17:51:10.845Z,-0.75
2023-03-06T17:53:57.643Z,-0.92
2023-03-06T17:56:44.581Z,-0.77
2023-03-06T17:59:34.001Z,-0.67
2023-03-06T18:02:20.250Z,-0.78
2023-03-06T18:05:07.563Z,-0.94
2023-03-06T18:07:53.955Z,-0.82
2023-03-06T18:10:41.878Z,-0.88
2023-03-06T18:13:28.476Z,-1.04
2023-03-06T18:16:17.498Z,-1.15
2023-03-06T18:19:07.581Z,-1.15
2023-03-06T18:21:54.917Z,-1.29
2023-03-06T18:24:53.872Z,-1.23
2023-03-06T18:27:40.863Z,-1.17
2023-03-06T18:30:27.665Z,-1.21
2023-03-06T18:33:14.621Z,-1.22
2023-03-06T18:36:04.096Z,-1.26
2023-03-06T18:38:51.490Z,-1.27
2023-03-06T18:41:39.628Z,-1.36
2023-03-06T18:44:26.501Z,-1.37
2023-03-06T18:47:15.616Z,-1.44
2023-03-06T18:50:05.386Z,-1.49
2023-03-06T18:52:51.566Z,-1.53
2023-03-06T18:55:38.535Z,-1.81
2023-03-06T18:58:24.916Z,-1.53
2023-03-06T19:01:12.094Z,-1.68
2023-03-06T19:04:02.759Z,-1.83
2023-03-06T19:06:52.226Z,-1.94
2023-03-06T19:09:38.899Z,-1.78
2023-03-06T19:12:25.684Z,-1.90
2023-03-06T19:15:12.576Z,-1.81
2023-03-06T19:18:05.666Z,-1.87
2023-03-06T19:21:17.737Z,-1.97
2023-03-06T19:24:13.363Z,-1.85
2023-03-06T19:26:59.975Z,-1.89
2023-03-06T19:29:46.784Z,-1.91
2023-03-06T19:32:49.707Z,-1.96
2023-03-06T19:36:05.897Z,-2.20
2023-03-06T19:38:58.572Z,-1.99
2023-03-06T19:41:46.018Z,-1.99
2023-03-06T19:44:33.400Z,-2.05
2023-03-06T19:47:20.266Z,-2.23
2023-03-06T19:50:07.244Z,-2.05
2023-03-06T19:52:54.912Z,-2.10
2023-03-06T19:55:44.631Z,-2.10
2023-03-06T19:58:31.766Z,-2.21
2023-03-06T20:01:21.357Z,-2.28
2023-03-06T20:04:08.215Z,-2.17
2023-03-06T20:06:56.356Z,-2.26
2023-03-06T20:09:44.310Z,-2.31
2023-03-06T20:12:33.865Z,-2.25
2023-03-06T20:15:22.369Z,-2.28
2023-03-06T20:18:09.161Z,-2.41
2023-03-06T20:21:02.181Z,-2.29
2023-03-06T20:23:51.112Z,-2.51
2023-03-06T20:26:38.644Z,-2.62
2023-03-06T20:29:28.252Z,-2.45
2023-03-06T20:32:14.808Z,-2.51
2023-03-06T20:35:02.046Z,-2.52
2023-03-06T20:37:48.293Z,-2.56
2023-03-06T20:40:38.916Z,-2.60
2023-03-06T20:43:28.432Z,-2.51
2023-03-06T20:46:16.557Z,-2.66
2023-03-06T20:49:03.377Z,-2.84
2023-03-06T20:51:50.500Z,-2.87
2023-03-06T20:54:36.809Z,-2.51
2023-03-06T20:57:23.805Z,-2.90
2023-03-06T21:00:11.966Z,-2.81
2023-03-06T21:02:58.726Z,-2.71
2023-03-06T21:05:48.657Z,-2.65
2023-03-06T21:08:35.875Z,-2.67
2023-03-06T21:11:22.373Z,-2.74
2023-03-06T21:14:11.481Z,-2.67
2023-03-06T21:16:59.396Z,-2.86
2023-03-06T21:19:47.252Z,-2.78
2023-03-06T21:22:33.588Z,-2.73
2023-03-06T21:25:20.739Z,-2.93
2023-03-06T21:28:07.381Z,-2.83
2023-03-06T21:30:54.536Z,-2.90
2023-03-06T21:33:41.230Z,-2.90
2023-03-06T21:36:28.294Z,-3.08
2023-03-06T21:39:14.532Z,-2.94
2023-03-06T21:42:01.294Z,-3.03
2023-03-06T21:44:47.853Z,-3.07
2023-03-06T21:47:38.887Z,-3.11
2023-03-06T21:50:25.746Z,-3.10
2023-03-06T21:53:12.556Z,-3.18
2023-03-06T21:56:01.627Z,-3.18
2023-03-06T21:59:00.344Z,-3.23
2023-03-06T22:01:47.655Z,-3.17
2023-03-06T22:04:34.511Z,-3.22
2023-03-06T22:07:21.367Z,-3.26
2023-03-06T22:10:12.326Z,-3.34
2023-03-06T22:12:58.882Z,-3.47
2023-03-06T22:15:53.024Z,-3.37
2023-03-06T22:18:39.378Z,-3.42
2023-03-06T22:21:26.411Z,-3.75
2023-03-06T22:24:12.653Z,-3.40
2023-03-06T22:26:59.515Z,-3.40
2023-03-06T22:29:46.243Z,-3.50
2023-03-06T22:32:32.902Z,-3.62
2023-03-06T22:35:20.336Z,-3.63
2023-03-06T22:38:07.196Z,-3.47
2023-03-06T22:40:57.135Z,-3.73
2023-03-06T22:43:44.153Z,-3.45
2023-03-06T22:46:32.133Z,-3.63
2023-03-06T22:49:19.186Z,-3.50
2023-03-06T22:52:05.648Z,-3.90
2023-03-06T22:54:52.453Z,-3.63
2023-03-06T22:57:38.874Z,-3.56
2023-03-06T23:00:25.851Z,-3.87
2023-03-06T23:03:12.041Z,-3.64
2023-03-06T23:05:58.637Z,-3.84
2023-03-06T23:08:49.365Z,-3.75
2023-03-06T23:11:36.108Z,-3.61
2023-03-06T23:14:41.437Z,-3.66
2023-03-06T23:17:46.894Z,-3.72
2023-03-06T23:20:51.480Z,-4.02
2023-03-06T23:23:56.832Z,-4.01
2023-03-06T23:26:43.435Z,-3.81
2023-03-06T23:29:30.078Z,-3.59
2023-03-06T23:32:16.568Z,-3.82
2023-03-06T23:35:03.233Z,-3.62
2023-03-06T23:37:49.767Z,-3.84
2023-03-06T23:40:37.988Z,-3.52
2023-03-06T23:43:24.433Z,-3.76
2023-03-06T23:46:11.259Z,-3.46
2023-03-06T23:48:57.632Z,-3.56
2023-03-06T23:51:44.260Z,-3.60
2023-03-06T23:54:30.754Z,-3.78
2023-03-06T23:57:17.200Z,-3.47
